Brandon, United Kingdom
Current Conditions -  °F | °C
As of 12:58 AM on Monday 24 Nov 2014 (Local Time) from EGUL Reporting Station
Clear Clear  
Wind Chill: 31°   Ceiling: Unl
Heat Index: 36°   Visibility: 6mi
Dew Point: 36°   Wind: 6mph
Humidity: 100%   Direction: 240°WSW
Pressure: 30.16"   Gusts: NA
Location:  52.45°N, 0.63°E
Report Text: EGUL 240058Z AUTO 24005KT 9999 CLR 02/02 A3016 RMK AO2 SLP217 T00210021
Loading
Personal Weather Stations






























Interactive Weather Map New forecast layout! Learn more

10-Day Weather Forecast

Advertisements
Track Severe Weather on mobile